Time;durP1;ratioP1;P1;durP2;ratioP2;P2;SDS_P1;SDS_P2;PMS_P1;PMS_P2;Temp;Humidity;BMP_temperature;BMP_pressure;BME280_temperature;BME280_humidity;BME280_pressure;Samples;Min_cycle;Max_cycle;Signal;HPM_P1;HPM_P2
2023/12/06 00:00:24;;;;;;;42.20;30.60;;;1.00;99.90;;;;;;5092640;27;20061;-67
2023/12/06 00:02:49;;;;;;;37.60;29.60;;;1.00;99.90;;;;;;5093666;27;20083;-67
2023/12/06 00:05:15;;;;;;;40.30;29.90;;;1.00;99.90;;;;;;5073765;27;20054;-67
2023/12/06 00:07:41;;;;;;;41.65;30.35;;;1.00;99.90;;;;;;5094262;27;20379;-67
2023/12/06 00:10:07;;;;;;;38.53;29.98;;;1.00;99.90;;;;;;5092097;27;20398;-67
2023/12/06 00:12:33;;;;;;;39.70;30.23;;;1.00;99.90;;;;;;5089968;27;20048;-67
2023/12/06 00:14:58;;;;;;;38.42;29.67;;;1.00;99.90;;;;;;5090704;28;20054;-67
2023/12/06 00:17:24;;;;;;;40.47;31.23;;;0.90;99.90;;;;;;5118630;27;21326;-67
2023/12/06 00:19:50;;;;;;;39.95;29.35;;;1.00;99.90;;;;;;5089992;28;20650;-67
2023/12/06 00:22:15;;;;;;;40.88;30.17;;;1.00;99.90;;;;;;5091040;28;20043;-67
2023/12/06 00:24:41;;;;;;;39.80;28.83;;;1.10;99.90;;;;;;5093238;28;20047;-67
2023/12/06 00:27:07;;;;;;;39.78;30.10;;;1.00;99.90;;;;;;5087390;28;20144;-67
2023/12/06 00:29:32;;;;;;;42.47;31.05;;;1.00;99.90;;;;;;5090808;28;20029;-67
2023/12/06 00:31:58;;;;;;;39.35;30.27;;;1.00;99.90;;;;;;5088472;28;20035;-67
2023/12/06 00:34:24;;;;;;;42.47;31.15;;;1.00;99.90;;;;;;5088623;28;20062;-67
2023/12/06 00:36:49;;;;;;;42.67;31.58;;;1.00;99.90;;;;;;5089240;28;20112;-67
2023/12/06 00:39:15;;;;;;;40.05;31.60;;;1.00;99.90;;;;;;5094158;28;20052;-67
2023/12/06 00:41:41;;;;;;;44.47;32.42;;;1.00;99.90;;;;;;5092038;28;20604;-67
2023/12/06 00:44:07;;;;;;;47.85;32.50;;;1.00;99.90;;;;;;5091768;28;20047;-67
2023/12/06 00:46:33;;;;;;;44.17;32.15;;;1.10;99.90;;;;;;5089696;28;20094;-67
2023/12/06 00:48:59;;;;;;;47.92;33.03;;;1.10;99.90;;;;;;5087692;28;20049;-67
2023/12/06 00:51:27;;;;;;;45.83;31.98;;;1.10;99.90;;;;;;5093999;28;20052;-67
2023/12/06 00:53:52;;;;;;;48.63;33.28;;;1.10;99.90;;;;;;5086878;28;20040;-67
2023/12/06 00:56:18;;;;;;;44.17;32.85;;;1.10;99.90;;;;;;5089664;28;20112;-67
2023/12/06 00:58:44;;;;;;;47.20;32.80;;;1.10;99.90;;;;;;5092832;28;20553;-67
2023/12/06 01:01:11;;;;;;;47.30;33.65;;;1.10;99.90;;;;;;5087087;28;20079;-67
2023/12/06 01:03:38;;;;;;;46.40;31.92;;;1.10;99.90;;;;;;5092216;28;20058;-67
2023/12/06 01:06:04;;;;;;;46.75;32.97;;;1.10;99.90;;;;;;5116710;27;20051;-67
2023/12/06 01:08:29;;;;;;;45.05;32.30;;;1.10;99.90;;;;;;5096842;28;20044;-67
2023/12/06 01:10:55;;;;;;;46.25;32.78;;;1.50;99.90;;;;;;5088746;28;20046;-67
2023/12/06 01:13:21;;;;;;;47.22;33.15;;;1.10;99.90;;;;;;5054179;27;1103881;-67
2023/12/06 01:15:46;;;;;;;49.08;34.28;;;1.10;99.90;;;;;;5089497;27;20048;-67
2023/12/06 01:18:13;;;;;;;46.45;34.17;;;1.20;99.90;;;;;;5093694;27;20035;-67
2023/12/06 01:20:39;;;;;;;45.88;32.38;;;1.20;99.90;;;;;;5090299;27;21553;-67
2023/12/06 01:23:05;;;;;;;53.28;34.60;;;1.20;99.90;;;;;;5091058;27;20055;-67
2023/12/06 01:25:33;;;;;;;46.28;32.35;;;1.20;99.90;;;;;;5091298;27;20053;-67
2023/12/06 01:27:59;;;;;;;53.78;34.28;;;1.20;99.90;;;;;;5090919;27;20043;-67
2023/12/06 01:30:24;;;;;;;50.30;33.60;;;1.20;99.90;;;;;;5092356;27;20410;-67
2023/12/06 01:32:50;;;;;;;46.78;32.80;;;1.20;99.90;;;;;;5105733;27;20055;-67
2023/12/06 01:35:16;;;;;;;48.97;33.83;;;1.20;99.90;;;;;;5119556;27;20039;-67
2023/12/06 01:37:42;;;;;;;46.45;32.05;;;1.20;99.90;;;;;;5088037;27;20470;-67
2023/12/06 01:40:08;;;;;;;50.83;33.47;;;1.20;99.90;;;;;;5090607;27;20111;-67
2023/12/06 01:42:35;;;;;;;49.72;33.60;;;1.20;99.90;;;;;;5092475;27;20084;-67
2023/12/06 01:45:01;;;;;;;47.75;32.00;;;1.20;99.90;;;;;;5090612;27;20044;-67
2023/12/06 01:47:27;;;;;;;51.60;33.20;;;1.20;99.90;;;;;;5092084;27;20040;-67
2023/12/06 01:49:56;;;;;;;43.60;30.45;;;1.20;99.90;;;;;;5093356;27;20036;-67
2023/12/06 01:52:21;;;;;;;49.08;33.80;;;1.20;99.90;;;;;;5087713;27;20050;-67
2023/12/06 01:54:48;;;;;;;43.90;30.23;;;1.20;99.90;;;;;;5086871;27;20039;-67
2023/12/06 01:57:14;;;;;;;47.15;32.10;;;1.20;99.90;;;;;;5091163;27;20050;-67
2023/12/06 01:59:40;;;;;;;44.08;30.63;;;1.20;99.90;;;;;;5090761;27;20039;-67
2023/12/06 02:02:06;;;;;;;42.90;30.77;;;1.20;99.90;;;;;;5087815;27;20044;-67
2023/12/06 02:04:33;;;;;;;44.22;31.33;;;1.20;99.90;;;;;;5089565;27;20365;-67
2023/12/06 02:06:59;;;;;;;42.08;30.48;;;1.20;99.90;;;;;;5086219;27;20044;-67
2023/12/06 02:09:26;;;;;;;47.20;31.30;;;1.20;99.90;;;;;;5087526;27;20043;-67
2023/12/06 02:11:52;;;;;;;45.15;31.25;;;1.20;99.90;;;;;;5090035;27;20122;-67
2023/12/06 02:14:18;;;;;;;43.70;30.10;;;1.20;99.90;;;;;;5090486;27;20082;-67
2023/12/06 02:16:44;;;;;;;41.53;29.52;;;1.20;99.90;;;;;;5089634;27;20043;-68
2023/12/06 02:19:22;;;;;;;46.13;30.83;;;1.20;99.90;;;;;;5088986;27;20044;-67
2023/12/06 02:21:50;;;;;;;42.70;29.73;;;1.30;99.90;;;;;;5088819;27;20093;-67
2023/12/06 02:24:18;;;;;;;39.85;29.17;;;1.20;99.90;;;;;;5088006;27;20043;-67
2023/12/06 02:26:43;;;;;;;40.88;28.52;;;1.30;99.90;;;;;;5112999;27;20047;-67
2023/12/06 02:29:09;;;;;;;45.90;29.67;;;1.20;99.90;;;;;;5087943;27;20035;-67
2023/12/06 02:31:35;;;;;;;42.10;29.63;;;1.30;99.90;;;;;;5086596;27;20050;-67
2023/12/06 02:34:07;;;;;;;43.63;28.55;;;1.30;99.90;;;;;;5087583;27;20500;-67
2023/12/06 02:36:34;;;;;;;38.88;27.25;;;1.30;99.90;;;;;;5089560;27;20035;-67
2023/12/06 02:39:01;;;;;;;41.97;28.33;;;1.30;99.90;;;;;;5090024;27;20044;-67
2023/12/06 02:41:27;;;;;;;37.80;27.15;;;1.30;99.90;;;;;;5085893;27;20044;-67
2023/12/06 02:43:52;;;;;;;39.58;27.20;;;1.30;99.90;;;;;;5084882;27;20047;-67
2023/12/06 02:46:18;;;;;;;41.00;28.55;;;1.30;99.90;;;;;;5086165;27;20700;-67
2023/12/06 02:48:44;;;;;;;36.35;26.88;;;1.20;99.90;;;;;;5085470;27;20039;-67
2023/12/06 02:51:09;;;;;;;40.42;28.20;;;1.30;99.90;;;;;;5088253;27;20426;-67
2023/12/06 02:53:35;;;;;;;38.72;28.98;;;1.20;99.90;;;;;;5089946;27;20089;-68
2023/12/06 02:56:00;;;;;;;38.00;27.38;;;1.20;99.90;;;;;;5085940;27;20039;-67
2023/12/06 02:58:26;;;;;;;38.30;26.02;;;1.20;99.90;;;;;;5089470;27;20072;-67
2023/12/06 03:00:52;;;;;;;39.20;28.73;;;1.20;99.90;;;;;;5093106;27;20702;-67
2023/12/06 03:03:17;;;;;;;41.95;27.95;;;1.20;99.90;;;;;;5085913;27;20946;-67
2023/12/06 03:05:43;;;;;;;39.33;28.83;;;1.30;99.90;;;;;;5087221;28;20086;-67
2023/12/06 03:08:09;;;;;;;38.67;26.60;;;1.20;99.90;;;;;;5093873;28;20423;-67
2023/12/06 03:10:34;;;;;;;40.22;27.02;;;1.20;99.90;;;;;;5090045;28;20044;-67
2023/12/06 03:13:00;;;;;;;39.25;27.88;;;1.30;99.90;;;;;;5087672;28;20035;-67
2023/12/06 03:15:25;;;;;;;35.67;27.45;;;1.20;99.90;;;;;;5085952;28;20047;-67
2023/12/06 03:17:51;;;;;;;36.03;26.55;;;1.30;99.90;;;;;;5115398;27;20108;-67
2023/12/06 03:20:17;;;;;;;39.08;26.65;;;1.30;99.90;;;;;;5087075;28;20160;-68
2023/12/06 03:22:43;;;;;;;36.15;25.52;;;1.30;99.90;;;;;;5089977;28;20054;-67
2023/12/06 03:25:08;;;;;;;37.05;26.58;;;1.30;99.90;;;;;;5086268;28;21536;-67
2023/12/06 03:27:34;;;;;;;36.55;25.55;;;1.30;99.90;;;;;;5088356;28;20043;-67
2023/12/06 03:30:00;;;;;;;35.22;25.80;;;1.30;99.90;;;;;;5086829;28;20043;-67
2023/12/06 03:32:25;;;;;;;37.85;26.75;;;1.30;99.90;;;;;;5087145;28;20050;-67
2023/12/06 03:34:51;;;;;;;37.85;26.00;;;1.30;99.90;;;;;;5083758;28;20455;-67
2023/12/06 03:37:16;;;;;;;38.13;26.27;;;1.30;99.90;;;;;;5087815;28;20044;-67
2023/12/06 03:39:42;;;;;;;34.03;24.00;;;1.30;99.90;;;;;;5087479;28;20061;-67
2023/12/06 03:42:08;;;;;;;30.92;23.75;;;1.30;99.90;;;;;;5090129;28;20036;-67
2023/12/06 03:44:33;;;;;;;36.55;25.05;;;1.30;99.90;;;;;;5086272;28;20052;-67
2023/12/06 03:46:59;;;;;;;30.50;23.58;;;1.30;99.90;;;;;;5089922;28;20550;-67
2023/12/06 03:49:25;;;;;;;34.25;24.38;;;1.30;99.90;;;;;;5088627;27;20042;-67
2023/12/06 03:51:50;;;;;;;30.73;23.55;;;1.20;99.90;;;;;;5089916;28;20025;-67
2023/12/06 03:54:16;;;;;;;34.47;24.17;;;1.30;99.90;;;;;;5088431;28;20047;-67
2023/12/06 03:56:42;;;;;;;30.92;23.55;;;1.30;99.90;;;;;;5088446;28;20039;-68
2023/12/06 03:59:08;;;;;;;30.23;23.77;;;1.30;99.90;;;;;;5084709;28;20062;-68
2023/12/06 04:01:33;;;;;;;27.13;21.17;;;1.40;99.90;;;;;;5090260;28;20050;-67
2023/12/06 04:03:59;;;;;;;28.92;22.38;;;1.30;99.90;;;;;;5088979;28;20052;-67
2023/12/06 04:06:25;;;;;;;29.88;23.02;;;1.40;99.90;;;;;;5090465;27;20044;-67
2023/12/06 04:08:50;;;;;;;31.45;21.63;;;1.40;99.90;;;;;;5092328;27;20051;-67
2023/12/06 04:11:16;;;;;;;27.73;22.33;;;1.40;99.90;;;;;;5092290;27;20035;-68
2023/12/06 04:13:41;;;;;;;33.00;21.92;;;1.50;99.90;;;;;;5091797;27;20472;-68
2023/12/06 04:16:07;;;;;;;28.65;21.95;;;1.40;99.90;;;;;;5094011;27;20038;-68
2023/12/06 04:18:33;;;;;;;29.63;22.45;;;1.40;99.90;;;;;;5090805;27;20086;-68
2023/12/06 04:20:58;;;;;;;28.00;21.17;;;1.50;99.90;;;;;;5090471;27;20024;-68
2023/12/06 04:23:24;;;;;;;30.17;21.92;;;1.40;99.90;;;;;;5091474;27;20052;-68
2023/12/06 04:25:50;;;;;;;24.63;20.33;;;1.40;99.90;;;;;;5116684;27;20078;-67
2023/12/06 04:28:15;;;;;;;28.00;21.13;;;1.40;99.90;;;;;;5091311;27;20083;-68
2023/12/06 04:30:41;;;;;;;25.70;20.55;;;1.40;99.90;;;;;;5091371;27;20035;-68
2023/12/06 04:33:06;;;;;;;24.63;18.85;;;1.40;99.90;;;;;;5091478;27;20043;-68
2023/12/06 04:35:32;;;;;;;25.05;20.50;;;1.40;99.90;;;;;;5090879;27;20047;-68
2023/12/06 04:37:58;;;;;;;25.45;20.77;;;1.50;99.90;;;;;;5093302;27;20044;-68
2023/12/06 04:40:23;;;;;;;22.83;19.40;;;1.40;99.90;;;;;;5087997;27;20188;-68
2023/12/06 04:42:49;;;;;;;24.10;20.55;;;1.50;99.90;;;;;;5089261;27;20413;-68
2023/12/06 04:45:14;;;;;;;26.35;19.88;;;1.50;99.90;;;;;;5074458;27;20047;-68
2023/12/06 04:47:40;;;;;;;23.95;19.10;;;1.50;99.90;;;;;;5093058;27;20448;-68
2023/12/06 04:50:06;;;;;;;24.33;20.25;;;1.50;99.90;;;;;;5091827;27;20051;-68
2023/12/06 04:52:32;;;;;;;23.67;20.08;;;1.40;99.90;;;;;;5090581;27;20085;-68
2023/12/06 04:54:58;;;;;;;24.63;19.83;;;1.50;99.90;;;;;;5092517;27;20482;-68
2023/12/06 04:57:23;;;;;;;26.13;19.63;;;1.40;99.90;;;;;;5089870;27;20046;-68
2023/12/06 04:59:49;;;;;;;23.02;18.60;;;1.40;99.90;;;;;;5095580;27;20971;-68
2023/12/06 05:02:14;;;;;;;24.27;18.60;;;1.50;99.90;;;;;;5115885;27;20040;-67
2023/12/06 05:04:40;;;;;;;21.48;18.50;;;1.50;99.90;;;;;;5088067;27;20096;-68
2023/12/06 05:07:06;;;;;;;22.33;17.70;;;1.50;99.90;;;;;;5088708;27;20067;-68
2023/12/06 05:09:31;;;;;;;20.85;17.83;;;1.50;99.90;;;;;;5070693;27;20088;-68
2023/12/06 05:11:57;;;;;;;21.05;17.42;;;1.50;99.90;;;;;;5089446;27;20623;-68
2023/12/06 05:14:23;;;;;;;23.23;17.52;;;1.50;99.90;;;;;;5091629;27;20043;-68
2023/12/06 05:16:48;;;;;;;22.23;17.73;;;1.50;99.90;;;;;;5088856;27;20126;-68
2023/12/06 05:19:14;;;;;;;21.15;17.63;;;1.50;99.90;;;;;;5089770;27;20039;-68
2023/12/06 05:21:39;;;;;;;20.23;17.65;;;1.40;99.90;;;;;;5089888;27;20102;-68
2023/12/06 05:24:05;;;;;;;21.77;18.63;;;1.50;99.90;;;;;;5089842;27;20041;-68
2023/12/06 05:26:31;;;;;;;24.45;18.63;;;1.50;99.90;;;;;;5092997;27;20043;-68
2023/12/06 05:28:58;;;;;;;27.63;18.77;;;1.50;99.90;;;;;;5092126;27;20139;-68
2023/12/06 05:31:24;;;;;;;25.90;18.48;;;1.50;99.90;;;;;;5086973;27;20040;-68
2023/12/06 05:33:49;;;;;;;23.58;18.92;;;1.60;99.90;;;;;;5088058;27;20079;-68
2023/12/06 05:36:15;;;;;;;22.92;17.65;;;1.50;99.90;;;;;;5089182;27;20051;-68
2023/12/06 05:38:41;;;;;;;20.67;17.80;;;1.60;99.90;;;;;;5093984;27;20056;-68
2023/12/06 05:41:06;;;;;;;29.45;18.85;;;1.60;99.90;;;;;;5089564;27;20416;-68
2023/12/06 05:43:32;;;;;;;23.83;18.38;;;1.60;99.90;;;;;;5090145;27;20043;-68
2023/12/06 05:45:58;;;;;;;23.13;18.95;;;1.60;99.90;;;;;;5089526;27;20036;-68
2023/12/06 05:48:24;;;;;;;25.27;19.75;;;1.60;99.90;;;;;;5090282;27;20049;-68
2023/12/06 05:50:49;;;;;;;24.27;20.30;;;1.60;99.90;;;;;;5086300;27;20417;-67
2023/12/06 05:53:15;;;;;;;27.67;20.27;;;1.60;99.90;;;;;;5090097;27;20077;-67
2023/12/06 05:55:40;;;;;;;24.90;20.05;;;1.60;99.90;;;;;;5116831;27;21480;-67
2023/12/06 05:58:06;;;;;;;21.42;18.98;;;1.60;99.90;;;;;;5088899;27;20051;-67
2023/12/06 06:00:32;;;;;;;27.52;19.58;;;1.60;99.90;;;;;;5086471;27;20078;-68
2023/12/06 06:02:59;;;;;;;25.20;18.55;;;1.60;99.90;;;;;;5090809;27;20195;-68
2023/12/06 06:05:24;;;;;;;23.38;19.77;;;1.60;99.90;;;;;;5115240;27;20295;-67
2023/12/06 06:07:50;;;;;;;23.58;19.40;;;1.60;99.90;;;;;;5089606;27;20036;-68
2023/12/06 06:10:16;;;;;;;22.60;18.20;;;1.70;99.90;;;;;;5087274;27;20036;-68
2023/12/06 06:12:42;;;;;;;20.27;17.60;;;1.60;99.90;;;;;;5087594;27;20130;-68
2023/12/06 06:15:08;;;;;;;22.55;18.40;;;1.70;99.90;;;;;;5088983;27;20123;-68
2023/12/06 06:17:34;;;;;;;25.02;18.67;;;1.60;99.90;;;;;;5093628;28;20093;-68
2023/12/06 06:20:00;;;;;;;25.85;19.77;;;1.60;99.90;;;;;;5090802;27;20067;-68
2023/12/06 06:22:27;;;;;;;24.20;20.05;;;1.60;99.90;;;;;;5073799;27;20817;-68
2023/12/06 06:24:52;;;;;;;21.90;19.23;;;1.70;99.90;;;;;;5090246;27;20041;-68
2023/12/06 06:27:18;;;;;;;24.75;19.35;;;1.70;99.90;;;;;;5091073;27;20027;-68
2023/12/06 06:29:44;;;;;;;25.83;20.65;;;1.70;99.90;;;;;;5089937;27;21414;-68
2023/12/06 06:32:10;;;;;;;28.55;20.27;;;1.70;99.90;;;;;;5088555;27;20536;-68
2023/12/06 06:34:36;;;;;;;22.27;18.17;;;1.70;99.90;;;;;;5092275;27;20554;-68
2023/12/06 06:37:02;;;;;;;25.52;19.73;;;1.70;99.90;;;;;;5101050;28;20043;-68
2023/12/06 06:39:28;;;;;;;25.65;19.45;;;1.70;99.90;;;;;;5098932;28;20490;-68
2023/12/06 06:41:54;;;;;;;23.50;19.90;;;1.70;99.90;;;;;;5098512;28;20042;-68
2023/12/06 06:44:20;;;;;;;25.77;19.00;;;1.70;99.90;;;;;;5118804;27;20039;-68
2023/12/06 06:46:46;;;;;;;24.40;19.38;;;1.70;99.90;;;;;;5086284;27;20047;-67
2023/12/06 06:49:12;;;;;;;23.02;18.40;;;1.70;99.90;;;;;;5089172;27;20035;-68
2023/12/06 06:51:37;;;;;;;23.38;19.05;;;1.80;99.90;;;;;;5088308;27;21159;-68
2023/12/06 06:54:05;;;;;;;25.33;19.58;;;1.70;99.90;;;;;;5090631;27;20126;-68
2023/12/06 06:56:30;;;;;;;24.02;19.40;;;1.70;99.90;;;;;;5086876;27;20040;-68
2023/12/06 06:58:57;;;;;;;23.25;19.33;;;1.70;99.90;;;;;;5085679;27;20047;-67
2023/12/06 07:01:23;;;;;;;26.55;19.77;;;1.70;99.90;;;;;;5091043;27;20048;-68
2023/12/06 07:03:48;;;;;;;27.60;20.27;;;1.70;99.90;;;;;;5118774;27;20043;-68
2023/12/06 07:06:14;;;;;;;29.25;20.33;;;1.70;99.90;;;;;;5087004;27;21110;-68
2023/12/06 07:08:40;;;;;;;24.40;19.90;;;1.70;99.90;;;;;;5088494;28;20126;-68
2023/12/06 07:11:07;;;;;;;23.67;19.35;;;2.20;99.90;;;;;;5092447;28;20138;-67
2023/12/06 07:13:34;;;;;;;22.58;17.98;;;1.80;99.90;;;;;;5092998;28;20076;-67
2023/12/06 07:16:00;;;;;;;24.10;18.67;;;1.80;99.90;;;;;;5092730;28;20043;-67
2023/12/06 07:18:26;;;;;;;22.88;18.70;;;1.80;99.90;;;;;;5089653;28;20048;-67
2023/12/06 07:20:51;;;;;;;22.45;19.27;;;1.70;99.90;;;;;;5090939;28;21871;-67
2023/12/06 07:23:18;;;;;;;24.67;18.95;;;1.70;99.90;;;;;;5089587;28;20077;-67
2023/12/06 07:25:47;;;;;;;20.52;17.15;;;1.70;99.90;;;;;;5090629;28;20365;-67
2023/12/06 07:28:13;;;;;;;23.00;18.48;;;1.70;99.90;;;;;;5089292;28;20054;-67
2023/12/06 07:30:40;;;;;;;24.15;18.45;;;1.70;99.90;;;;;;5087762;27;20043;-67
2023/12/06 07:33:07;;;;;;;23.48;17.85;;;1.80;99.90;;;;;;5089512;28;20889;-67
2023/12/06 07:35:34;;;;;;;22.30;17.45;;;1.80;99.90;;;;;;5092392;28;20075;-67
2023/12/06 07:38:00;;;;;;;22.25;18.60;;;1.70;99.90;;;;;;5091380;28;20051;-67
2023/12/06 07:40:25;;;;;;;19.85;17.48;;;1.80;99.90;;;;;;5089859;27;20031;-67
2023/12/06 07:42:51;;;;;;;18.45;16.33;;;1.80;99.90;;;;;;5093247;27;20040;-67
2023/12/06 07:45:17;;;;;;;19.15;16.63;;;1.90;99.90;;;;;;5090877;27;20036;-68
2023/12/06 07:47:43;;;;;;;18.90;16.20;;;2.20;99.90;;;;;;5091851;27;20027;-67
2023/12/06 07:50:09;;;;;;;21.30;17.27;;;2.00;99.90;;;;;;5093080;27;20043;-67
2023/12/06 07:52:36;;;;;;;19.60;16.55;;;1.90;99.90;;;;;;5092648;27;20067;-67
2023/12/06 07:55:06;;;;;;;22.92;17.10;;;1.90;99.90;;;;;;5093931;27;20055;-67
2023/12/06 07:57:32;;;;;;;19.52;16.58;;;2.00;99.90;;;;;;5093007;27;20058;-67
2023/12/06 07:59:58;;;;;;;20.33;16.27;;;2.00;99.90;;;;;;5118377;27;20237;-67
2023/12/06 08:02:25;;;;;;;19.10;16.20;;;2.00;99.90;;;;;;5094261;27;20043;-67
2023/12/06 08:04:50;;;;;;;20.48;17.58;;;2.00;99.90;;;;;;5108208;27;20044;-67
2023/12/06 08:07:16;;;;;;;18.98;16.98;;;2.00;99.90;;;;;;5092728;27;20044;-67
2023/12/06 08:09:42;;;;;;;25.88;18.02;;;2.00;99.90;;;;;;5092738;27;20044;-67
2023/12/06 08:12:07;;;;;;;19.45;16.00;;;2.00;99.90;;;;;;5091804;27;20035;-67
2023/12/06 08:14:34;;;;;;;19.25;16.88;;;2.00;99.90;;;;;;5095769;27;20182;-67
2023/12/06 08:17:00;;;;;;;20.08;17.10;;;2.10;99.90;;;;;;5091713;27;20046;-67
2023/12/06 08:19:26;;;;;;;20.85;17.27;;;2.10;99.90;;;;;;5095400;27;20039;-67
2023/12/06 08:21:51;;;;;;;20.50;16.73;;;2.10;99.90;;;;;;5094072;27;20039;-67
2023/12/06 08:24:17;;;;;;;18.23;16.23;;;2.10;99.90;;;;;;5091273;27;20040;-67
2023/12/06 08:26:43;;;;;;;18.90;16.77;;;2.10;99.90;;;;;;5092175;27;20045;-67
2023/12/06 08:29:09;;;;;;;19.67;16.35;;;2.10;99.90;;;;;;5091899;27;20036;-67
2023/12/06 08:31:36;;;;;;;18.60;16.63;;;2.10;99.90;;;;;;5090518;27;20790;-68
2023/12/06 08:34:02;;;;;;;28.15;17.08;;;2.10;99.90;;;;;;5091619;27;20055;-68
2023/12/06 08:36:28;;;;;;;18.33;15.25;;;2.20;99.90;;;;;;5091960;27;20044;-68
2023/12/06 08:38:54;;;;;;;20.98;17.00;;;2.10;99.90;;;;;;5089872;27;20153;-67
2023/12/06 08:41:20;;;;;;;18.23;16.20;;;2.20;99.90;;;;;;5090735;27;20039;-68
2023/12/06 08:43:46;;;;;;;19.15;15.15;;;2.20;99.90;;;;;;5095229;27;20084;-67
2023/12/06 08:46:11;;;;;;;19.95;16.08;;;2.20;99.90;;;;;;5093469;27;20051;-67
2023/12/06 08:48:37;;;;;;;19.02;15.30;;;2.20;99.90;;;;;;5119373;27;20564;-67
2023/12/06 08:51:03;;;;;;;18.95;15.10;;;2.20;99.90;;;;;;5094089;27;20040;-67
2023/12/06 08:53:29;;;;;;;21.67;15.90;;;2.20;99.90;;;;;;5094669;27;20078;-67
2023/12/06 08:55:55;;;;;;;17.52;15.63;;;2.20;99.90;;;;;;5093467;27;20118;-67
2023/12/06 08:58:22;;;;;;;16.00;14.27;;;2.20;99.90;;;;;;5094709;27;20043;-68
2023/12/06 09:00:48;;;;;;;19.17;14.82;;;2.20;99.90;;;;;;5091080;27;20044;-68
2023/12/06 09:03:14;;;;;;;17.65;15.75;;;2.30;99.90;;;;;;5091002;27;20043;-67
2023/12/06 09:05:40;;;;;;;18.45;15.77;;;2.30;99.90;;;;;;5091026;27;20084;-67
2023/12/06 09:08:06;;;;;;;17.52;14.95;;;2.30;99.90;;;;;;5091129;27;20040;-67
2023/12/06 09:10:32;;;;;;;18.20;15.45;;;2.30;99.90;;;;;;5087526;27;20040;-67
2023/12/06 09:12:58;;;;;;;19.45;15.43;;;2.30;99.90;;;;;;5118466;27;20390;-68
2023/12/06 09:15:23;;;;;;;21.40;15.10;;;2.30;99.90;;;;;;5091214;27;20048;-68
2023/12/06 09:17:49;;;;;;;19.73;15.70;;;2.40;99.90;;;;;;5089032;27;20044;-68
2023/12/06 09:20:16;;;;;;;18.15;15.05;;;2.30;99.90;;;;;;5091517;27;20116;-68
2023/12/06 09:22:42;;;;;;;17.52;15.32;;;2.40;99.90;;;;;;5089239;27;20048;-67
2023/12/06 09:25:08;;;;;;;18.25;15.15;;;2.40;99.90;;;;;;5093383;27;20040;-67
2023/12/06 09:27:34;;;;;;;18.52;14.70;;;2.50;99.90;;;;;;5093423;27;20067;-68
2023/12/06 09:29:59;;;;;;;16.20;14.20;;;2.50;99.90;;;;;;5092958;27;20036;-67
2023/12/06 09:32:25;;;;;;;17.02;15.18;;;2.50;99.90;;;;;;5089454;27;20570;-68
2023/12/06 09:34:51;;;;;;;16.83;15.02;;;2.50;99.90;;;;;;5088132;27;20047;-68
2023/12/06 09:37:17;;;;;;;16.65;14.95;;;2.50;99.90;;;;;;5089835;27;20052;-68
2023/12/06 09:39:43;;;;;;;18.25;14.90;;;2.60;99.90;;;;;;5091451;27;20486;-68
2023/12/06 09:42:10;;;;;;;16.90;14.27;;;2.60;99.90;;;;;;5088866;27;20047;-67
2023/12/06 09:44:41;;;;;;;20.13;14.45;;;2.60;99.90;;;;;;5076678;27;20067;-68
2023/12/06 09:47:07;;;;;;;18.80;14.30;;;2.60;99.90;;;;;;5097153;27;20047;-68
2023/12/06 09:49:33;;;;;;;19.90;14.05;;;2.60;99.90;;;;;;5092132;27;20129;-67
2023/12/06 09:52:11;;;;;;;16.80;14.00;;;2.60;99.90;;;;;;5089195;27;20058;-67
2023/12/06 09:54:43;;;;;;;15.40;12.50;;;2.60;99.90;;;;;;5090919;27;20164;-67
2023/12/06 09:57:10;;;;;;;18.77;14.02;;;2.70;99.90;;;;;;5117891;27;20079;-68
2023/12/06 09:59:35;;;;;;;16.00;13.65;;;2.60;99.90;;;;;;5089884;27;20089;-68
2023/12/06 10:02:01;;;;;;;17.77;13.27;;;2.60;99.90;;;;;;5088625;27;20048;-68
2023/12/06 10:04:27;;;;;;;16.30;13.55;;;2.70;99.90;;;;;;5090362;27;20098;-68
2023/12/06 10:06:54;;;;;;;15.60;13.02;;;2.70;99.90;;;;;;5090453;27;20050;-67
2023/12/06 10:09:20;;;;;;;15.23;13.65;;;2.70;99.90;;;;;;5090757;27;20106;-68
2023/12/06 10:11:47;;;;;;;16.33;14.38;;;2.70;99.90;;;;;;5071358;28;20130;-68
2023/12/06 10:14:20;;;;;;;16.90;15.02;;;2.80;99.90;;;;;;5088237;27;20121;-68
2023/12/06 10:16:47;;;;;;;16.98;13.90;;;2.80;99.90;;;;;;5091946;27;20043;-68
2023/12/06 10:19:21;;;;;;;19.80;13.95;;;2.80;99.90;;;;;;5089560;27;20084;-67
2023/12/06 10:21:50;;;;;;;17.08;14.07;;;2.90;99.90;;;;;;5089133;27;20036;-68
2023/12/06 10:24:16;;;;;;;17.98;13.57;;;2.90;99.90;;;;;;5088761;27;20044;-68
2023/12/06 10:26:42;;;;;;;18.88;13.90;;;2.90;99.90;;;;;;5092370;27;20050;-68
2023/12/06 10:29:08;;;;;;;17.63;14.52;;;2.90;99.90;;;;;;5087443;27;20033;-68
2023/12/06 10:31:45;;;;;;;19.25;14.52;;;2.90;99.90;;;;;;5089239;27;20043;-67
2023/12/06 10:34:11;;;;;;;15.00;13.40;;;3.00;99.90;;;;;;5089041;27;20039;-68
2023/12/06 10:36:37;;;;;;;16.17;13.38;;;3.00;99.90;;;;;;5087788;27;20048;-68
2023/12/06 10:39:09;;;;;;;16.90;13.60;;;3.10;99.90;;;;;;5089696;27;20120;-68
2023/12/06 10:41:41;;;;;;;19.88;15.10;;;3.40;99.90;;;;;;5091180;27;20055;-67
2023/12/06 10:44:09;;;;;;;19.10;13.20;;;3.10;99.90;;;;;;5086789;27;20040;-68
2023/12/06 10:46:36;;;;;;;17.92;14.20;;;3.20;99.90;;;;;;5090657;27;20042;-68
2023/12/06 10:49:03;;;;;;;21.45;13.57;;;3.20;99.90;;;;;;5088597;27;20036;-68
2023/12/06 10:51:29;;;;;;;15.35;12.02;;;3.20;99.90;;;;;;5091237;27;20047;-68
2023/12/06 10:53:59;;;;;;;18.35;13.32;;;3.20;99.90;;;;;;5087159;27;20051;-68
2023/12/06 10:56:26;;;;;;;14.48;12.07;;;3.20;99.90;;;;;;5088146;27;20046;-68
2023/12/06 10:58:54;;;;;;;15.95;13.18;;;3.20;99.90;;;;;;5092258;27;20088;-68
2023/12/06 11:01:22;;;;;;;18.40;12.68;;;3.20;99.90;;;;;;5088781;27;20118;-69
2023/12/06 11:03:47;;;;;;;15.75;11.85;;;3.20;99.90;;;;;;5088395;27;20055;-68
2023/12/06 11:06:22;;;;;;;14.05;11.10;;;3.20;99.90;;;;;;5087958;27;20032;-68
2023/12/06 11:09:08;;;;;;;14.82;11.35;;;3.30;99.90;;;;;;5085822;27;20055;-68
2023/12/06 11:11:41;;;;;;;;;;;3.30;99.90;;;;;;5088959;28;20039;-68
2023/12/06 11:14:15;;;;;;;13.25;11.18;;;3.20;99.90;;;;;;5086230;28;19915;-68
2023/12/06 11:17:04;;;;;;;15.30;12.40;;;3.30;99.90;;;;;;5091702;27;20433;-68
2023/12/06 11:19:31;;;;;;;16.90;11.45;;;3.20;99.90;;;;;;5091162;27;20542;-68
2023/12/06 11:21:57;;;;;;;16.17;12.15;;;3.30;99.90;;;;;;5074534;27;22088;-68
2023/12/06 11:24:23;;;;;;;14.88;11.77;;;3.30;99.90;;;;;;5087477;27;20148;-68
2023/12/06 11:26:50;;;;;;;13.25;11.20;;;3.30;99.90;;;;;;5096355;27;20438;-68
2023/12/06 11:29:17;;;;;;;12.57;11.32;;;3.30;99.90;;;;;;5092895;27;20032;-68
2023/12/06 11:31:43;;;;;;;15.70;11.93;;;3.30;99.90;;;;;;5094580;27;20043;-68
2023/12/06 11:34:09;;;;;;;13.32;10.93;;;3.30;99.90;;;;;;5095309;27;20040;-68
2023/12/06 11:36:37;;;;;;;13.00;11.13;;;3.40;99.90;;;;;;5100814;28;20069;-68
2023/12/06 11:39:16;;;;;;;16.67;12.02;;;3.40;99.90;;;;;;5095097;27;20054;-68
2023/12/06 11:41:48;;;;;;;17.50;11.05;;;3.30;99.90;;;;;;5093246;27;20047;-67
2023/12/06 11:44:17;;;;;;;13.25;11.30;;;3.40;99.90;;;;;;5093504;27;20558;-68
2023/12/06 11:46:50;;;;;;;12.57;10.88;;;3.40;99.90;;;;;;5076206;27;20134;-68
2023/12/06 11:49:16;;;;;;;14.98;10.98;;;3.40;99.90;;;;;;5094620;27;20150;-68
2023/12/06 11:51:42;;;;;;;12.93;11.30;;;3.30;99.90;;;;;;5095104;27;20077;-68
2023/12/06 11:54:09;;;;;;;13.63;10.52;;;3.40;99.90;;;;;;5089404;27;20102;-68
2023/12/06 11:56:35;;;;;;;12.65;11.35;;;3.40;99.90;;;;;;5091469;27;20055;-68
2023/12/06 11:59:02;;;;;;;12.57;10.15;;;3.40;99.90;;;;;;5092807;27;20040;-68
2023/12/06 12:01:29;;;;;;;11.98;10.18;;;3.40;99.90;;;;;;5094059;27;20129;-68
2023/12/06 12:03:55;;;;;;;13.65;10.50;;;3.40;99.90;;;;;;5092137;27;20040;-68
2023/12/06 12:06:23;;;;;;;12.50;10.48;;;3.50;99.90;;;;;;5091313;27;20076;-68
2023/12/06 12:08:49;;;;;;;14.13;10.48;;;3.50;99.90;;;;;;5092200;27;20114;-68
2023/12/06 12:11:16;;;;;;;17.65;10.57;;;3.40;99.90;;;;;;5118152;27;20043;-68
2023/12/06 12:13:43;;;;;;;13.23;9.63;;;3.40;99.90;;;;;;5092231;27;20053;-68
2023/12/06 12:16:10;;;;;;;12.82;10.45;;;3.40;99.90;;;;;;5089962;27;20073;-68
2023/12/06 12:18:36;;;;;;;10.98;9.85;;;3.40;99.90;;;;;;5096177;27;20043;-68
2023/12/06 12:21:16;;;;;;;13.18;10.07;;;3.30;99.90;;;;;;5091549;27;20101;-68
2023/12/06 12:23:42;;;;;;;11.35;10.20;;;3.30;99.90;;;;;;5094194;27;20048;-68
2023/12/06 12:26:17;;;;;;;11.98;9.80;;;3.40;99.90;;;;;;5093876;27;20067;-68
2023/12/06 12:28:43;;;;;;;11.65;10.43;;;3.30;99.90;;;;;;5118428;27;20032;-68
2023/12/06 12:31:16;;;;;;;11.88;9.68;;;3.30;99.90;;;;;;5118331;27;20072;-68
2023/12/06 12:33:42;;;;;;;11.20;10.00;;;3.30;99.90;;;;;;5100147;27;20130;-68